sensor_id;sensor_type;location;lat;lon;timestamp;temperature;humidity
48589;DHT22;34369;51.174;6.738;2023-08-06T00:01:02;16.00;69.00
48589;DHT22;34369;51.174;6.738;2023-08-06T00:03:34;16.00;69.00
48589;DHT22;34369;51.174;6.738;2023-08-06T00:06:07;16.00;69.00
48589;DHT22;34369;51.174;6.738;2023-08-06T00:08:40;16.00;68.90
48589;DHT22;34369;51.174;6.738;2023-08-06T00:11:12;16.00;68.90
48589;DHT22;34369;51.174;6.738;2023-08-06T00:13:44;15.90;68.90
48589;DHT22;34369;51.174;6.738;2023-08-06T00:16:16;15.90;68.80
48589;DHT22;34369;51.174;6.738;2023-08-06T00:18:48;15.90;68.70
48589;DHT22;34369;51.174;6.738;2023-08-06T00:21:20;15.90;68.70
48589;DHT22;34369;51.174;6.738;2023-08-06T00:23:53;15.90;68.70
48589;DHT22;34369;51.174;6.738;2023-08-06T00:26:28;15.80;68.60
48589;DHT22;34369;51.174;6.738;2023-08-06T00:29:00;15.80;68.60
48589;DHT22;34369;51.174;6.738;2023-08-06T00:31:33;15.80;68.60
48589;DHT22;34369;51.174;6.738;2023-08-06T00:34:05;15.80;68.70
48589;DHT22;34369;51.174;6.738;2023-08-06T00:36:37;15.70;68.70
48589;DHT22;34369;51.174;6.738;2023-08-06T00:39:10;15.70;68.70
48589;DHT22;34369;51.174;6.738;2023-08-06T00:41:42;15.70;68.70
48589;DHT22;34369;51.174;6.738;2023-08-06T00:44:14;15.70;68.70
48589;DHT22;34369;51.174;6.738;2023-08-06T00:46:46;15.60;68.80
48589;DHT22;34369;51.174;6.738;2023-08-06T00:49:19;15.60;68.80
48589;DHT22;34369;51.174;6.738;2023-08-06T00:51:51;15.60;68.90
48589;DHT22;34369;51.174;6.738;2023-08-06T00:54:25;15.60;68.90
48589;DHT22;34369;51.174;6.738;2023-08-06T00:56:59;15.60;69.10
48589;DHT22;34369;51.174;6.738;2023-08-06T00:59:32;15.60;69.30
48589;DHT22;34369;51.174;6.738;2023-08-06T01:02:05;15.60;69.30
48589;DHT22;34369;51.174;6.738;2023-08-06T01:04:37;15.60;69.40
48589;DHT22;34369;51.174;6.738;2023-08-06T01:07:19;15.70;69.30
48589;DHT22;34369;51.174;6.738;2023-08-06T01:10:14;15.60;69.40
48589;DHT22;34369;51.174;6.738;2023-08-06T01:12:58;15.70;69.20
48589;DHT22;34369;51.174;6.738;2023-08-06T01:15:42;15.70;69.10
48589;DHT22;34369;51.174;6.738;2023-08-06T01:18:16;15.70;69.10
48589;DHT22;34369;51.174;6.738;2023-08-06T01:20:50;15.70;69.00
48589;DHT22;34369;51.174;6.738;2023-08-06T01:23:22;15.70;69.00
48589;DHT22;34369;51.174;6.738;2023-08-06T01:25:58;15.80;68.90
48589;DHT22;34369;51.174;6.738;2023-08-06T01:28:41;15.80;68.80
48589;DHT22;34369;51.174;6.738;2023-08-06T01:31:21;15.80;68.80
48589;DHT22;34369;51.174;6.738;2023-08-06T01:33:56;15.80;68.70
48589;DHT22;34369;51.174;6.738;2023-08-06T01:36:31;15.80;68.70
48589;DHT22;34369;51.174;6.738;2023-08-06T01:39:05;15.80;68.70
48589;DHT22;34369;51.174;6.738;2023-08-06T01:41:37;15.90;68.60
48589;DHT22;34369;51.174;6.738;2023-08-06T01:44:09;15.90;68.60
48589;DHT22;34369;51.174;6.738;2023-08-06T01:46:41;15.90;68.70
48589;DHT22;34369;51.174;6.738;2023-08-06T01:49:13;15.90;68.50
48589;DHT22;34369;51.174;6.738;2023-08-06T01:51:46;15.90;68.50
48589;DHT22;34369;51.174;6.738;2023-08-06T01:54:18;15.90;68.50
48589;DHT22;34369;51.174;6.738;2023-08-06T01:56:50;15.90;68.40
48589;DHT22;34369;51.174;6.738;2023-08-06T01:59:22;15.90;68.40
48589;DHT22;34369;51.174;6.738;2023-08-06T02:01:54;15.90;68.30
48589;DHT22;34369;51.174;6.738;2023-08-06T02:04:26;15.90;68.40
48589;DHT22;34369;51.174;6.738;2023-08-06T02:07:00;15.90;68.20
48589;DHT22;34369;51.174;6.738;2023-08-06T02:09:32;15.90;68.30
48589;DHT22;34369;51.174;6.738;2023-08-06T02:12:06;15.90;68.30
48589;DHT22;34369;51.174;6.738;2023-08-06T02:14:39;15.90;68.30
48589;DHT22;34369;51.174;6.738;2023-08-06T02:17:11;15.90;68.30
48589;DHT22;34369;51.174;6.738;2023-08-06T02:19:43;15.90;68.30
48589;DHT22;34369;51.174;6.738;2023-08-06T02:22:16;15.90;68.30
48589;DHT22;34369;51.174;6.738;2023-08-06T02:24:49;15.90;68.40
48589;DHT22;34369;51.174;6.738;2023-08-06T02:27:21;15.90;68.50
48589;DHT22;34369;51.174;6.738;2023-08-06T02:29:53;15.90;68.50
48589;DHT22;34369;51.174;6.738;2023-08-06T02:32:25;15.90;68.60
48589;DHT22;34369;51.174;6.738;2023-08-06T02:34:57;15.90;68.70
48589;DHT22;34369;51.174;6.738;2023-08-06T02:37:32;15.90;68.60
48589;DHT22;34369;51.174;6.738;2023-08-06T02:40:05;15.90;68.70
48589;DHT22;34369;51.174;6.738;2023-08-06T02:42:38;15.90;68.70
48589;DHT22;34369;51.174;6.738;2023-08-06T02:45:10;15.90;68.70
48589;DHT22;34369;51.174;6.738;2023-08-06T02:47:42;16.00;68.90
48589;DHT22;34369;51.174;6.738;2023-08-06T02:50:14;15.90;68.80
48589;DHT22;34369;51.174;6.738;2023-08-06T02:52:47;15.90;68.70
48589;DHT22;34369;51.174;6.738;2023-08-06T02:55:20;15.90;68.70
48589;DHT22;34369;51.174;6.738;2023-08-06T02:57:52;15.90;68.70
48589;DHT22;34369;51.174;6.738;2023-08-06T03:00:25;15.90;68.70
48589;DHT22;34369;51.174;6.738;2023-08-06T03:02:57;15.90;68.70
48589;DHT22;34369;51.174;6.738;2023-08-06T03:05:29;15.90;68.60
48589;DHT22;34369;51.174;6.738;2023-08-06T03:08:09;15.90;68.70
48589;DHT22;34369;51.174;6.738;2023-08-06T03:10:41;15.90;68.70
48589;DHT22;34369;51.174;6.738;2023-08-06T03:13:13;15.90;68.70
48589;DHT22;34369;51.174;6.738;2023-08-06T03:15:52;15.90;68.60
48589;DHT22;34369;51.174;6.738;2023-08-06T03:18:25;15.90;68.70
48589;DHT22;34369;51.174;6.738;2023-08-06T03:20:57;15.90;68.60
48589;DHT22;34369;51.174;6.738;2023-08-06T03:23:33;15.90;68.60
48589;DHT22;34369;51.174;6.738;2023-08-06T03:26:05;15.90;68.60
48589;DHT22;34369;51.174;6.738;2023-08-06T03:28:37;15.90;68.50
48589;DHT22;34369;51.174;6.738;2023-08-06T03:31:09;15.90;68.50
48589;DHT22;34369;51.174;6.738;2023-08-06T03:33:41;15.80;68.60
48589;DHT22;34369;51.174;6.738;2023-08-06T03:36:13;15.80;68.60
48589;DHT22;34369;51.174;6.738;2023-08-06T03:38:46;15.80;68.70
48589;DHT22;34369;51.174;6.738;2023-08-06T03:41:19;15.80;68.70
48589;DHT22;34369;51.174;6.738;2023-08-06T03:43:51;15.80;68.70
48589;DHT22;34369;51.174;6.738;2023-08-06T03:46:23;15.80;68.70
48589;DHT22;34369;51.174;6.738;2023-08-06T03:48:56;15.80;68.70
48589;DHT22;34369;51.174;6.738;2023-08-06T03:51:28;15.80;68.70
48589;DHT22;34369;51.174;6.738;2023-08-06T03:54:01;15.80;68.70
48589;DHT22;34369;51.174;6.738;2023-08-06T03:56:33;15.70;68.80
48589;DHT22;34369;51.174;6.738;2023-08-06T03:59:05;15.70;68.80
48589;DHT22;34369;51.174;6.738;2023-08-06T04:01:38;15.70;68.80
48589;DHT22;34369;51.174;6.738;2023-08-06T04:04:09;15.70;68.90
48589;DHT22;34369;51.174;6.738;2023-08-06T04:06:41;15.70;69.00
48589;DHT22;34369;51.174;6.738;2023-08-06T04:09:15;15.70;69.00
48589;DHT22;34369;51.174;6.738;2023-08-06T04:11:47;15.70;69.10
48589;DHT22;34369;51.174;6.738;2023-08-06T04:14:19;15.70;69.20
48589;DHT22;34369;51.174;6.738;2023-08-06T04:16:51;15.70;69.20
48589;DHT22;34369;51.174;6.738;2023-08-06T04:19:23;15.70;69.30
48589;DHT22;34369;51.174;6.738;2023-08-06T04:21:55;15.70;69.30
48589;DHT22;34369;51.174;6.738;2023-08-06T04:24:29;15.70;69.30
48589;DHT22;34369;51.174;6.738;2023-08-06T04:27:01;15.70;69.60
48589;DHT22;34369;51.174;6.738;2023-08-06T04:29:36;15.70;69.50
48589;DHT22;34369;51.174;6.738;2023-08-06T04:32:09;15.70;69.40
48589;DHT22;34369;51.174;6.738;2023-08-06T04:34:42;15.70;69.40
48589;DHT22;34369;51.174;6.738;2023-08-06T04:37:14;15.70;69.50
48589;DHT22;34369;51.174;6.738;2023-08-06T04:39:47;15.70;69.60
48589;DHT22;34369;51.174;6.738;2023-08-06T04:42:19;15.70;69.50
48589;DHT22;34369;51.174;6.738;2023-08-06T04:44:51;15.70;69.50
48589;DHT22;34369;51.174;6.738;2023-08-06T04:47:23;15.70;69.40
48589;DHT22;34369;51.174;6.738;2023-08-06T04:49:56;15.70;69.40
48589;DHT22;34369;51.174;6.738;2023-08-06T04:52:28;15.70;69.40
48589;DHT22;34369;51.174;6.738;2023-08-06T04:55:05;15.70;69.60
48589;DHT22;34369;51.174;6.738;2023-08-06T04:57:38;15.70;69.70
48589;DHT22;34369;51.174;6.738;2023-08-06T05:00:14;15.70;69.60
48589;DHT22;34369;51.174;6.738;2023-08-06T05:02:46;15.70;69.70
48589;DHT22;34369;51.174;6.738;2023-08-06T05:05:18;15.70;69.70
48589;DHT22;34369;51.174;6.738;2023-08-06T05:07:50;15.70;69.80
48589;DHT22;34369;51.174;6.738;2023-08-06T05:10:26;15.70;69.80
48589;DHT22;34369;51.174;6.738;2023-08-06T05:12:58;15.70;70.00
48589;DHT22;34369;51.174;6.738;2023-08-06T05:15:33;15.70;70.00
48589;DHT22;34369;51.174;6.738;2023-08-06T05:18:05;15.70;70.20
48589;DHT22;34369;51.174;6.738;2023-08-06T05:20:37;15.70;70.20
48589;DHT22;34369;51.174;6.738;2023-08-06T05:23:11;15.70;70.30
48589;DHT22;34369;51.174;6.738;2023-08-06T05:25:45;15.70;70.20
48589;DHT22;34369;51.174;6.738;2023-08-06T05:28:17;15.80;70.20
48589;DHT22;34369;51.174;6.738;2023-08-06T05:30:49;15.80;70.30
48589;DHT22;34369;51.174;6.738;2023-08-06T05:33:21;15.80;70.40
48589;DHT22;34369;51.174;6.738;2023-08-06T05:35:53;15.80;70.50
48589;DHT22;34369;51.174;6.738;2023-08-06T05:38:25;15.80;70.50
48589;DHT22;34369;51.174;6.738;2023-08-06T05:41:02;15.80;70.60
48589;DHT22;34369;51.174;6.738;2023-08-06T05:43:40;15.90;70.60
48589;DHT22;34369;51.174;6.738;2023-08-06T05:46:30;15.90;70.80
48589;DHT22;34369;51.174;6.738;2023-08-06T05:49:06;15.90;70.80
48589;DHT22;34369;51.174;6.738;2023-08-06T05:51:38;15.90;70.60
48589;DHT22;34369;51.174;6.738;2023-08-06T05:54:13;16.00;70.60
48589;DHT22;34369;51.174;6.738;2023-08-06T05:56:46;16.00;70.60
48589;DHT22;34369;51.174;6.738;2023-08-06T05:59:19;16.00;70.50
48589;DHT22;34369;51.174;6.738;2023-08-06T06:01:51;16.10;70.40
48589;DHT22;34369;51.174;6.738;2023-08-06T06:04:23;16.10;70.30
48589;DHT22;34369;51.174;6.738;2023-08-06T06:06:55;16.10;70.20
48589;DHT22;34369;51.174;6.738;2023-08-06T06:09:27;16.10;70.20
48589;DHT22;34369;51.174;6.738;2023-08-06T06:12:00;16.10;70.10
48589;DHT22;34369;51.174;6.738;2023-08-06T06:14:32;16.20;70.10
48589;DHT22;34369;51.174;6.738;2023-08-06T06:17:04;16.20;70.00
48589;DHT22;34369;51.174;6.738;2023-08-06T06:19:37;16.20;69.90
48589;DHT22;34369;51.174;6.738;2023-08-06T06:22:12;16.20;70.00
48589;DHT22;34369;51.174;6.738;2023-08-06T06:24:44;16.20;69.90
48589;DHT22;34369;51.174;6.738;2023-08-06T06:27:18;16.30;69.90
48589;DHT22;34369;51.174;6.738;2023-08-06T06:29:51;16.30;70.20
48589;DHT22;34369;51.174;6.738;2023-08-06T06:32:25;16.30;69.90
48589;DHT22;34369;51.174;6.738;2023-08-06T06:34:57;16.30;69.90
48589;DHT22;34369;51.174;6.738;2023-08-06T06:37:32;16.30;69.50
48589;DHT22;34369;51.174;6.738;2023-08-06T06:40:05;16.30;69.40
48589;DHT22;34369;51.174;6.738;2023-08-06T06:42:39;16.40;69.50
48589;DHT22;34369;51.174;6.738;2023-08-06T06:45:11;16.30;69.70
48589;DHT22;34369;51.174;6.738;2023-08-06T06:47:44;16.40;69.70
48589;DHT22;34369;51.174;6.738;2023-08-06T06:50:16;16.40;69.80
48589;DHT22;34369;51.174;6.738;2023-08-06T06:52:48;16.40;69.90
48589;DHT22;34369;51.174;6.738;2023-08-06T06:55:20;16.50;70.10
48589;DHT22;34369;51.174;6.738;2023-08-06T06:57:54;16.50;70.10
48589;DHT22;34369;51.174;6.738;2023-08-06T07:00:26;16.60;70.20
48589;DHT22;34369;51.174;6.738;2023-08-06T07:02:58;16.60;70.20
48589;DHT22;34369;51.174;6.738;2023-08-06T07:05:33;16.70;70.10
48589;DHT22;34369;51.174;6.738;2023-08-06T07:08:05;16.70;70.00
48589;DHT22;34369;51.174;6.738;2023-08-06T07:10:37;16.80;69.90
48589;DHT22;34369;51.174;6.738;2023-08-06T07:13:10;16.80;69.70
48589;DHT22;34369;51.174;6.738;2023-08-06T07:15:43;16.90;69.90
48589;DHT22;34369;51.174;6.738;2023-08-06T07:18:15;16.90;69.60
48589;DHT22;34369;51.174;6.738;2023-08-06T07:21:05;17.00;69.30
48589;DHT22;34369;51.174;6.738;2023-08-06T07:23:41;17.00;69.50
48589;DHT22;34369;51.174;6.738;2023-08-06T07:26:14;17.00;69.30
48589;DHT22;34369;51.174;6.738;2023-08-06T07:28:53;17.00;69.30
48589;DHT22;34369;51.174;6.738;2023-08-06T07:31:55;17.10;69.20
48589;DHT22;34369;51.174;6.738;2023-08-06T07:34:27;17.20;69.00
48589;DHT22;34369;51.174;6.738;2023-08-06T07:36:59;17.20;69.00
48589;DHT22;34369;51.174;6.738;2023-08-06T07:39:32;17.20;69.10
48589;DHT22;34369;51.174;6.738;2023-08-06T07:42:07;17.20;68.90
48589;DHT22;34369;51.174;6.738;2023-08-06T07:44:41;17.20;68.80
48589;DHT22;34369;51.174;6.738;2023-08-06T07:47:13;17.20;68.90
48589;DHT22;34369;51.174;6.738;2023-08-06T07:49:45;17.20;69.10
48589;DHT22;34369;51.174;6.738;2023-08-06T07:52:18;17.20;69.30
48589;DHT22;34369;51.174;6.738;2023-08-06T07:54:50;17.30;69.20
48589;DHT22;34369;51.174;6.738;2023-08-06T07:57:22;17.40;68.60
48589;DHT22;34369;51.174;6.738;2023-08-06T07:59:56;17.40;68.60
48589;DHT22;34369;51.174;6.738;2023-08-06T08:02:28;17.40;68.70
48589;DHT22;34369;51.174;6.738;2023-08-06T08:05:00;17.50;69.00
48589;DHT22;34369;51.174;6.738;2023-08-06T08:07:33;17.50;69.10
48589;DHT22;34369;51.174;6.738;2023-08-06T08:10:06;17.50;68.70
48589;DHT22;34369;51.174;6.738;2023-08-06T08:12:39;17.60;68.60
48589;DHT22;34369;51.174;6.738;2023-08-06T08:15:12;17.70;68.40
48589;DHT22;34369;51.174;6.738;2023-08-06T08:17:44;17.70;68.20
48589;DHT22;34369;51.174;6.738;2023-08-06T08:20:18;17.80;68.60
48589;DHT22;34369;51.174;6.738;2023-08-06T08:22:50;17.80;68.30
48589;DHT22;34369;51.174;6.738;2023-08-06T08:25:22;17.80;68.30
48589;DHT22;34369;51.174;6.738;2023-08-06T08:27:55;17.90;68.20
48589;DHT22;34369;51.174;6.738;2023-08-06T08:30:28;18.00;68.40
48589;DHT22;34369;51.174;6.738;2023-08-06T08:33:00;18.00;69.20
48589;DHT22;34369;51.174;6.738;2023-08-06T08:35:32;18.10;69.10
48589;DHT22;34369;51.174;6.738;2023-08-06T08:38:05;18.30;68.90
48589;DHT22;34369;51.174;6.738;2023-08-06T08:40:42;18.60;68.70
48589;DHT22;34369;51.174;6.738;2023-08-06T08:43:20;18.80;67.20
48589;DHT22;34369;51.174;6.738;2023-08-06T08:45:55;19.00;66.30
48589;DHT22;34369;51.174;6.738;2023-08-06T08:48:29;19.20;66.00
48589;DHT22;34369;51.174;6.738;2023-08-06T08:51:02;19.20;65.30
48589;DHT22;34369;51.174;6.738;2023-08-06T08:53:35;19.30;64.80
48589;DHT22;34369;51.174;6.738;2023-08-06T08:56:11;19.30;64.50
48589;DHT22;34369;51.174;6.738;2023-08-06T08:58:45;19.20;64.20
48589;DHT22;34369;51.174;6.738;2023-08-06T09:01:20;19.20;64.20
48589;DHT22;34369;51.174;6.738;2023-08-06T09:03:56;19.20;64.30
48589;DHT22;34369;51.174;6.738;2023-08-06T09:06:30;19.10;64.20
48589;DHT22;34369;51.174;6.738;2023-08-06T09:09:08;19.00;64.40
48589;DHT22;34369;51.174;6.738;2023-08-06T09:11:43;19.00;64.40
48589;DHT22;34369;51.174;6.738;2023-08-06T09:14:16;18.90;65.00
48589;DHT22;34369;51.174;6.738;2023-08-06T09:16:54;19.00;65.90
48589;DHT22;34369;51.174;6.738;2023-08-06T09:19:27;19.20;67.20
48589;DHT22;34369;51.174;6.738;2023-08-06T09:21:59;19.40;66.50
48589;DHT22;34369;51.174;6.738;2023-08-06T09:24:31;19.70;64.90
48589;DHT22;34369;51.174;6.738;2023-08-06T09:27:04;20.00;63.90
48589;DHT22;34369;51.174;6.738;2023-08-06T09:29:40;20.10;62.90
48589;DHT22;34369;51.174;6.738;2023-08-06T09:32:17;20.10;62.10
48589;DHT22;34369;51.174;6.738;2023-08-06T09:34:55;20.00;61.90
48589;DHT22;34369;51.174;6.738;2023-08-06T09:37:35;19.80;61.40
48589;DHT22;34369;51.174;6.738;2023-08-06T09:40:24;19.70;61.40
48589;DHT22;34369;51.174;6.738;2023-08-06T09:42:58;19.40;62.00
48589;DHT22;34369;51.174;6.738;2023-08-06T09:45:32;19.20;61.90
48589;DHT22;34369;51.174;6.738;2023-08-06T09:48:08;19.00;62.50
48589;DHT22;34369;51.174;6.738;2023-08-06T09:50:41;18.80;63.10
48589;DHT22;34369;51.174;6.738;2023-08-06T09:53:14;18.60;63.60
48589;DHT22;34369;51.174;6.738;2023-08-06T09:55:46;18.50;63.50
48589;DHT22;34369;51.174;6.738;2023-08-06T09:58:20;18.30;63.70
48589;DHT22;34369;51.174;6.738;2023-08-06T10:00:54;18.10;64.00
48589;DHT22;34369;51.174;6.738;2023-08-06T10:03:33;18.00;64.40
48589;DHT22;34369;51.174;6.738;2023-08-06T10:06:06;17.80;64.90
48589;DHT22;34369;51.174;6.738;2023-08-06T10:08:39;17.60;65.40
48589;DHT22;34369;51.174;6.738;2023-08-06T10:11:15;17.50;66.00
48589;DHT22;34369;51.174;6.738;2023-08-06T10:13:50;17.40;66.50
48589;DHT22;34369;51.174;6.738;2023-08-06T10:16:25;17.40;66.50
48589;DHT22;34369;51.174;6.738;2023-08-06T10:19:02;17.30;66.80
48589;DHT22;34369;51.174;6.738;2023-08-06T10:21:35;17.20;67.20
48589;DHT22;34369;51.174;6.738;2023-08-06T10:24:08;17.20;67.20
48589;DHT22;34369;51.174;6.738;2023-08-06T10:26:41;17.10;67.10
48589;DHT22;34369;51.174;6.738;2023-08-06T10:29:40;17.00;66.90
48589;DHT22;34369;51.174;6.738;2023-08-06T10:32:18;17.00;67.30
48589;DHT22;34369;51.174;6.738;2023-08-06T10:34:57;16.90;67.50
48589;DHT22;34369;51.174;6.738;2023-08-06T10:37:45;16.80;67.70
48589;DHT22;34369;51.174;6.738;2023-08-06T10:40:21;16.70;68.10
48589;DHT22;34369;51.174;6.738;2023-08-06T10:43:00;16.70;67.80
48589;DHT22;34369;51.174;6.738;2023-08-06T10:45:37;16.60;68.40
48589;DHT22;34369;51.174;6.738;2023-08-06T10:48:10;16.60;68.30
48589;DHT22;34369;51.174;6.738;2023-08-06T10:50:43;16.50;68.30
48589;DHT22;34369;51.174;6.738;2023-08-06T10:53:16;16.50;68.30
48589;DHT22;34369;51.174;6.738;2023-08-06T10:55:48;16.50;68.50
48589;DHT22;34369;51.174;6.738;2023-08-06T10:58:20;16.40;68.50
48589;DHT22;34369;51.174;6.738;2023-08-06T11:00:53;16.40;68.50
48589;DHT22;34369;51.174;6.738;2023-08-06T11:03:26;16.40;68.50
48589;DHT22;34369;51.174;6.738;2023-08-06T11:06:06;16.30;68.50
48589;DHT22;34369;51.174;6.738;2023-08-06T11:08:54;16.30;68.40
48589;DHT22;34369;51.174;6.738;2023-08-06T11:11:31;16.20;68.60
48589;DHT22;34369;51.174;6.738;2023-08-06T11:14:04;16.20;68.60
48589;DHT22;34369;51.174;6.738;2023-08-06T11:16:39;16.10;68.60
48589;DHT22;34369;51.174;6.738;2023-08-06T11:19:15;16.00;68.90
48589;DHT22;34369;51.174;6.738;2023-08-06T11:22:04;16.00;69.00
48589;DHT22;34369;51.174;6.738;2023-08-06T11:24:40;15.90;69.50
48589;DHT22;34369;51.174;6.738;2023-08-06T11:27:13;15.90;69.30
48589;DHT22;34369;51.174;6.738;2023-08-06T11:30:07;15.80;69.60
48589;DHT22;34369;51.174;6.738;2023-08-06T11:32:46;15.80;69.90
48589;DHT22;34369;51.174;6.738;2023-08-06T11:35:23;15.70;70.00
48589;DHT22;34369;51.174;6.738;2023-08-06T11:37:57;15.70;69.90
48589;DHT22;34369;51.174;6.738;2023-08-06T11:40:31;15.70;69.80
48589;DHT22;34369;51.174;6.738;2023-08-06T11:43:07;15.70;69.90
48589;DHT22;34369;51.174;6.738;2023-08-06T11:45:40;15.60;69.90
48589;DHT22;34369;51.174;6.738;2023-08-06T11:48:14;15.60;70.10
48589;DHT22;34369;51.174;6.738;2023-08-06T11:50:54;15.60;70.10
48589;DHT22;34369;51.174;6.738;2023-08-06T11:53:31;15.50;70.20
48589;DHT22;34369;51.174;6.738;2023-08-06T11:56:04;15.50;70.40
48589;DHT22;34369;51.174;6.738;2023-08-06T11:58:54;15.50;70.40
48589;DHT22;34369;51.174;6.738;2023-08-06T12:01:26;15.50;70.30
48589;DHT22;34369;51.174;6.738;2023-08-06T12:03:59;15.50;70.60
48589;DHT22;34369;51.174;6.738;2023-08-06T12:06:31;15.50;70.70
48589;DHT22;34369;51.174;6.738;2023-08-06T12:09:25;15.50;70.70
48589;DHT22;34369;51.174;6.738;2023-08-06T12:11:57;15.50;70.90
48589;DHT22;34369;51.174;6.738;2023-08-06T12:14:29;15.50;70.80
48589;DHT22;34369;51.174;6.738;2023-08-06T12:17:01;15.50;70.90
48589;DHT22;34369;51.174;6.738;2023-08-06T12:19:34;15.50;70.90
48589;DHT22;34369;51.174;6.738;2023-08-06T12:22:10;15.50;71.10
48589;DHT22;34369;51.174;6.738;2023-08-06T12:24:50;15.50;71.20
48589;DHT22;34369;51.174;6.738;2023-08-06T12:27:36;15.50;71.60
48589;DHT22;34369;51.174;6.738;2023-08-06T12:30:10;15.60;71.00
48589;DHT22;34369;51.174;6.738;2023-08-06T12:32:43;15.60;71.10
48589;DHT22;34369;51.174;6.738;2023-08-06T12:35:25;15.60;71.00
48589;DHT22;34369;51.174;6.738;2023-08-06T12:38:08;15.60;71.20
48589;DHT22;34369;51.174;6.738;2023-08-06T12:40:58;15.60;71.20
48589;DHT22;34369;51.174;6.738;2023-08-06T12:43:34;15.60;71.30
48589;DHT22;34369;51.174;6.738;2023-08-06T12:46:11;15.70;71.00
48589;DHT22;34369;51.174;6.738;2023-08-06T12:48:43;15.70;71.00
48589;DHT22;34369;51.174;6.738;2023-08-06T12:51:19;15.70;71.20
48589;DHT22;34369;51.174;6.738;2023-08-06T12:53:51;15.80;71.20
48589;DHT22;34369;51.174;6.738;2023-08-06T12:56:25;15.80;71.10
48589;DHT22;34369;51.174;6.738;2023-08-06T12:58:57;15.80;71.20
48589;DHT22;34369;51.174;6.738;2023-08-06T13:01:51;15.80;70.70
48589;DHT22;34369;51.174;6.738;2023-08-06T13:04:35;15.90;70.60
48589;DHT22;34369;51.174;6.738;2023-08-06T13:07:08;15.90;70.30
48589;DHT22;34369;51.174;6.738;2023-08-06T13:09:40;15.90;70.20
48589;DHT22;34369;51.174;6.738;2023-08-06T13:12:14;16.00;70.20
48589;DHT22;34369;51.174;6.738;2023-08-06T13:14:46;16.00;70.10
48589;DHT22;34369;51.174;6.738;2023-08-06T13:17:27;16.00;69.50
48589;DHT22;34369;51.174;6.738;2023-08-06T13:20:05;16.00;69.30
48589;DHT22;34369;51.174;6.738;2023-08-06T13:22:38;16.00;69.30
48589;DHT22;34369;51.174;6.738;2023-08-06T13:25:10;16.00;69.20
48589;DHT22;34369;51.174;6.738;2023-08-06T13:27:46;16.00;68.90
48589;DHT22;34369;51.174;6.738;2023-08-06T13:30:18;16.10;69.10
48589;DHT22;34369;51.174;6.738;2023-08-06T13:32:50;16.10;68.90
48589;DHT22;34369;51.174;6.738;2023-08-06T13:35:23;16.10;68.90
48589;DHT22;34369;51.174;6.738;2023-08-06T13:37:55;16.10;68.90
48589;DHT22;34369;51.174;6.738;2023-08-06T13:40:28;16.10;69.00
48589;DHT22;34369;51.174;6.738;2023-08-06T13:43:02;16.10;69.20
48589;DHT22;34369;51.174;6.738;2023-08-06T13:45:37;16.10;68.90
48589;DHT22;34369;51.174;6.738;2023-08-06T13:48:09;16.20;69.00
48589;DHT22;34369;51.174;6.738;2023-08-06T13:50:41;16.20;69.10
48589;DHT22;34369;51.174;6.738;2023-08-06T13:53:14;16.20;69.00
48589;DHT22;34369;51.174;6.738;2023-08-06T13:55:46;16.20;69.00
48589;DHT22;34369;51.174;6.738;2023-08-06T13:58:19;16.20;69.20
48589;DHT22;34369;51.174;6.738;2023-08-06T14:00:52;16.20;69.40
48589;DHT22;34369;51.174;6.738;2023-08-06T14:03:25;16.30;69.20
48589;DHT22;34369;51.174;6.738;2023-08-06T14:05:57;16.30;69.30
48589;DHT22;34369;51.174;6.738;2023-08-06T14:08:31;16.30;69.20
48589;DHT22;34369;51.174;6.738;2023-08-06T14:11:04;16.30;69.40
48589;DHT22;34369;51.174;6.738;2023-08-06T14:13:38;16.40;69.60
48589;DHT22;34369;51.174;6.738;2023-08-06T14:16:10;16.40;69.70
48589;DHT22;34369;51.174;6.738;2023-08-06T14:18:46;16.40;69.80
48589;DHT22;34369;51.174;6.738;2023-08-06T14:21:35;16.50;69.90
48589;DHT22;34369;51.174;6.738;2023-08-06T14:24:10;16.50;69.80
48589;DHT22;34369;51.174;6.738;2023-08-06T14:26:42;16.60;69.70
48589;DHT22;34369;51.174;6.738;2023-08-06T14:29:15;16.60;69.50
48589;DHT22;34369;51.174;6.738;2023-08-06T14:31:47;16.70;69.40
48589;DHT22;34369;51.174;6.738;2023-08-06T14:34:19;16.70;69.10
48589;DHT22;34369;51.174;6.738;2023-08-06T14:36:51;16.80;69.20
48589;DHT22;34369;51.174;6.738;2023-08-06T14:39:24;16.80;69.20
48589;DHT22;34369;51.174;6.738;2023-08-06T14:42:04;16.90;69.00
48589;DHT22;34369;51.174;6.738;2023-08-06T14:44:38;16.90;68.80
48589;DHT22;34369;51.174;6.738;2023-08-06T14:47:11;16.90;68.60
48589;DHT22;34369;51.174;6.738;2023-08-06T14:49:48;16.90;68.70
48589;DHT22;34369;51.174;6.738;2023-08-06T14:52:21;16.90;68.70
48589;DHT22;34369;51.174;6.738;2023-08-06T14:55:07;17.00;68.50
48589;DHT22;34369;51.174;6.738;2023-08-06T14:58:14;17.00;68.30
48589;DHT22;34369;51.174;6.738;2023-08-06T15:01:10;17.00;68.30
48589;DHT22;34369;51.174;6.738;2023-08-06T15:03:43;17.00;68.00
48589;DHT22;34369;51.174;6.738;2023-08-06T15:06:16;17.00;67.90
48589;DHT22;34369;51.174;6.738;2023-08-06T15:08:48;17.00;68.00
48589;DHT22;34369;51.174;6.738;2023-08-06T15:11:20;17.00;68.30
48589;DHT22;34369;51.174;6.738;2023-08-06T15:13:53;17.00;68.40
48589;DHT22;34369;51.174;6.738;2023-08-06T15:16:32;17.10;68.30
48589;DHT22;34369;51.174;6.738;2023-08-06T15:19:04;17.10;68.00
48589;DHT22;34369;51.174;6.738;2023-08-06T15:21:40;17.10;67.70
48589;DHT22;34369;51.174;6.738;2023-08-06T15:24:13;17.10;67.80
48589;DHT22;34369;51.174;6.738;2023-08-06T15:26:45;17.00;67.80
48589;DHT22;34369;51.174;6.738;2023-08-06T15:29:20;17.00;67.80
48589;DHT22;34369;51.174;6.738;2023-08-06T15:32:02;17.00;68.00
48589;DHT22;34369;51.174;6.738;2023-08-06T15:34:34;17.00;68.30
48589;DHT22;34369;51.174;6.738;2023-08-06T15:37:07;17.00;68.10
48589;DHT22;34369;51.174;6.738;2023-08-06T15:39:39;17.00;68.20
48589;DHT22;34369;51.174;6.738;2023-08-06T15:42:12;17.00;68.00
48589;DHT22;34369;51.174;6.738;2023-08-06T15:44:45;17.00;67.40
48589;DHT22;34369;51.174;6.738;2023-08-06T15:47:18;17.00;67.50
48589;DHT22;34369;51.174;6.738;2023-08-06T15:49:51;17.00;67.70
48589;DHT22;34369;51.174;6.738;2023-08-06T15:52:23;17.00;67.50
48589;DHT22;34369;51.174;6.738;2023-08-06T15:54:55;17.00;67.50
48589;DHT22;34369;51.174;6.738;2023-08-06T15:57:29;16.90;67.30
48589;DHT22;34369;51.174;6.738;2023-08-06T16:00:04;16.90;67.30
48589;DHT22;34369;51.174;6.738;2023-08-06T16:02:38;16.80;67.50
48589;DHT22;34369;51.174;6.738;2023-08-06T16:05:11;16.80;67.70
48589;DHT22;34369;51.174;6.738;2023-08-06T16:07:43;16.70;67.80
48589;DHT22;34369;51.174;6.738;2023-08-06T16:10:15;16.70;67.70
48589;DHT22;34369;51.174;6.738;2023-08-06T16:12:51;16.70;67.70
48589;DHT22;34369;51.174;6.738;2023-08-06T16:15:26;16.60;67.90